Flight Track Log - Related Links

Times and Time Zones

All times are in EDT time to prevent confusion due to time zone crossing. See the FLG3458 flight status page for this flight to view local times or setup timezone preferences in your user account.


Time Position Orientation Groundspeed Altitude Reporting Facility
EDT Latitude Longitude Course Direction KTS MPH feet Rate Location/Type
Sat 06:29:10 PM 36.1167 -86.6833 64° Northeast 145 167 1,500  Level Nashville TRACON
Sat 06:29:34 PM 36.1000 -86.6833 180° South 159 183 2,400 2,688 Climbing Nashville TRACON
Sat 06:30:46 PM 36.0500 -86.6167 133° Southeast 222 255 5,800 2,629 Climbing Nashville TRACON
Sat 06:32:00 PM 36.1853 -86.1550 78° East  Level FlightAware Approximate
Sat 06:32:32 PM 36.0853 -86.4736 73° East 282 325 10,200  Level Memphis Center
Sat 06:33:00 PM 36.2143 -86.0309 64° Northeast  Level FlightAware Approximate
Sat 06:33:32 PM 36.1114 -86.3747 72° East 298 343 12,100  Level Memphis Center
Sat 06:34:00 PM 36.2610 -85.9142 64° Northeast  Level FlightAware Approximate
Sat 06:34:32 PM 36.1453 -86.2653 69° East 322 371 14,100  Level Memphis Center
Sat 06:35:32 PM 36.1786 -86.1453 71° East 355 409 16,800 2,550 Climbing Memphis Center
Sat 06:36:32 PM 36.2147 -86.0406 67° East 355 409 19,200 2,319 Climbing Memphis Center
Sat 06:38:15 PM 36.3078 -85.8278 61° Northeast 389 448 23,100 2,122 Climbing Indianapolis Center
Sat 06:39:16 PM 36.3642 -85.7075 60° Northeast 389 448 25,000 1,672 Climbing Indianapolis Center
Sat 06:40:17 PM 36.4217 -85.5878 59° Northeast 399 459 26,500 1,366 Climbing Indianapolis Center
Sat 06:41:19 PM 36.4803 -85.4631 60° Northeast 412 474 27,800 1,317 Climbing Indianapolis Center
Sat 06:42:20 PM 36.5414 -85.3331 60° Northeast 429 494 29,200 1,610 Climbing Indianapolis Center
Sat 06:43:22 PM 36.6017 -85.2042 60° Northeast 429 494 31,100 1,756 Climbing Indianapolis Center
Sat 06:44:23 PM 36.6464 -85.0744 67° East 408 470 32,800 1,268 Climbing Indianapolis Center
Sat 06:45:25 PM 36.6883 -84.9358 69° East 421 484 33,700 1,268 Climbing Indianapolis Center
Sat 06:46:26 PM 36.7294 -84.8000 69° East 418 481 35,400 1,268 Climbing Indianapolis Center
Sat 06:47:28 PM 36.7717 -84.6642 69° East 419 482 36,300 780 Climbing Indianapolis Center
Sat 06:48:29 PM 36.8136 -84.5256 69° East 425 489 37,000 344 Climbing Indianapolis Center
Sat 06:49:30 PM 36.8611 -84.3667 69° East 442 509 37,000  Level Indianapolis Center
Sat 06:50:32 PM 36.9042 -84.2208 70° East 445 512 37,000  Level Indianapolis Center
Sat 06:51:33 PM 36.9475 -84.0778 69° East 441 507 37,000  Level Indianapolis Center
Sat 06:52:35 PM 36.9894 -83.9347 70° East 438 504 37,000  Level Indianapolis Center
Sat 06:53:36 PM 37.0325 -83.7911 69° East 441 507 37,000  Level Indianapolis Center
Sat 06:54:38 PM 37.0825 -83.6197 70° East 445 512 37,000  Level Indianapolis Center
Sat 06:55:39 PM 37.1258 -83.4725 70° East 445 512 37,000  Level Indianapolis Center
Sat 06:56:40 PM 37.1689 -83.3242 70° East 448 516 37,000  Level Indianapolis Center
Sat 06:57:42 PM 37.2119 -83.1742 70° East 452 520 37,000  Level Indianapolis Center
Sat 06:58:43 PM 37.2556 -83.0231 70° East 454 522 37,000  Level Indianapolis Center
Sat 06:59:44 PM 37.2972 -82.8753 70° East 447 514 37,000  Level Indianapolis Center
Sat 07:00:46 PM 37.3394 -82.7333 69° East 434 499 37,000  Level Indianapolis Center
Sat 07:01:47 PM 37.3789 -82.5922 71° East 426 490 37,000  Level Indianapolis Center
Sat 07:02:48 PM 37.4181 -82.4542 70° East 420 483 37,000  Level Indianapolis Center
Sat 07:03:50 PM 37.4556 -82.3158 71° East 418 481 37,000  Level Indianapolis Center
Sat 07:04:51 PM 37.4950 -82.1756 70° East 423 487 37,000  Level Indianapolis Center
Sat 07:05:52 PM 37.5333 -82.0333 71° East 428 493 37,000  Level Indianapolis Center
Sat 07:06:53 PM 37.5644 -81.8617 77° East 430 495 37,000  Level Indianapolis Center
Sat 07:07:55 PM 37.5919 -81.7125 77° East 435 501 37,000  Level Indianapolis Center
Sat 07:08:56 PM 37.6217 -81.5647 76° East 435 501 37,000  Level Indianapolis Center
Sat 07:09:57 PM 37.6506 -81.4125 76° East 434 499 37,000  Level Indianapolis Center
Sat 07:10:59 PM 37.6767 -81.2669 77° East 436 502 37,000  Level Indianapolis Center
Sat 07:11:14 PM 37.6792 -81.2442 82° East 429 494 37,000  Level Washington Center
Sat 07:12:15 PM 37.7069 -81.0964 77° East 429 494 37,000  Level Washington Center
Sat 07:13:15 PM 37.7344 -80.9461 77° East 429 494 37,000  Level Washington Center
Sat 07:14:14 PM 37.7669 -80.7803 76° East 429 494 37,000  Level Washington Center
Sat 07:15:15 PM 37.7919 -80.6350 78° East 429 494 37,000  Level Washington Center
Sat 07:16:15 PM 37.8189 -80.4894 77° East 429 494 37,000  Level Washington Center
Sat 07:17:15 PM 37.8311 -80.3403 84° East 429 494 37,000  Level Washington Center
Sat 07:18:13 PM 37.8408 -80.1936 85° East 424 488 37,000  Level Washington Center
Sat 07:19:15 PM 37.8481 -80.0600 86° East 424 488 37,000  Level Washington Center
Sat 07:20:13 PM 37.8578 -79.9106 85° East 419 482 37,000  Level Washington Center
Sat 07:21:13 PM 37.8669 -79.7664 85° East 419 482 37,000  Level Washington Center
Sat 07:22:14 PM 37.8744 -79.6142 86° East 419 482 37,000  Level Washington Center
Sat 07:23:14 PM 37.8833 -79.4647 86° East 419 482 37,000  Level Washington Center
Sat 07:24:15 PM 37.8589 -79.3214 102° East 419 482 37,000  Level Washington Center
Sat 07:25:15 PM 37.8239 -79.1619 105° East 424 488 37,000  Level Washington Center
Sat 07:26:13 PM 37.7928 -79.0186 105° East 424 488 37,000  Level Washington Center
Sat 07:27:14 PM 37.7614 -78.8728 105° East 424 488 37,000  Level Washington Center
Sat 07:28:14 PM 37.7297 -78.7322 106° East 424 488 37,000  Level Washington Center
Sat 07:29:14 PM 37.7000 -78.5892 105° East 424 488 37,000  Level Washington Center
Sat 07:30:15 PM 37.6717 -78.4622 106° East 424 488 37,000  Level Washington Center
Sat 07:31:15 PM 37.6378 -78.3139 106° East 424 488 37,000  Level Washington Center
Sat 07:32:13 PM 37.6017 -78.1553 106° East 424 488 37,000  Level Washington Center
Sat 07:33:13 PM 37.5669 -78.0100 107° East 424 488 37,000  Level Washington Center
Sat 07:34:13 PM 37.5344 -77.8625 105° East 424 488 37,000  Level Washington Center
Sat 07:35:14 PM 37.4994 -77.7175 107° East 429 494 37,000  Level Washington Center
Sat 07:36:15 PM 37.4603 -77.5725 109° East 429 494 37,000  Level Washington Center
Sat 07:37:13 PM 37.4208 -77.4275 109° East 429 494 37,000  Level Washington Center
Sat 07:38:13 PM 37.3811 -77.2856 109° East 429 494 37,000  Level Washington Center
Sat 07:39:13 PM 37.3647 -77.1231 97° East 446 513 37,000  Level Washington Center
Sat 07:40:14 PM 37.3683 -76.9819 88° East 453 521 37,000  Level Washington Center
Sat 07:41:15 PM 37.3658 -76.8278 91° East 448 516 37,000  Level Washington Center
Sat 07:42:13 PM 37.3697 -76.6658 88° East 454 522 37,000  Level Washington Center
Sat 07:43:14 PM 37.3689 -76.5117 90° East 449 517 37,000  Level Washington Center
Sat 07:44:13 PM 37.3697 -76.3628 90° East 434 499 37,000  Level Washington Center
Sat 07:45:13 PM 37.3686 -76.2189 91° East 421 484 37,000  Level Washington Center
Sat 07:46:14 PM 37.4111 -76.0650 71° East 410 472 37,000  Level Washington Center
Sat 07:47:13 PM 37.5053 -75.9608 41° Northeast 405 466 37,000  Level Washington Center
Sat 07:48:13 PM 37.6200 -75.8908 26° Northeast 412 474 37,000 -50 Level Washington Center
Sat 07:49:14 PM 37.7350 -75.8150 28° Northeast 440 506 36,900  Descending Washington Center
Sat 07:50:14 PM 37.8456 -75.7417 28° Northeast 445 512 37,000 49 Climbing Washington Center
Sat 07:51:16 PM 37.9561 -75.6603 30° Northeast 445 512 37,000  Level Washington Center
Sat 07:52:13 PM 38.0647 -75.5786 31° Northeast 445 512 37,000  Level Washington Center
Sat 07:53:13 PM 38.1753 -75.4942 31° Northeast 451 519 37,000 -496 Level Washington Center
Sat 07:54:14 PM 38.2878 -75.4144 29° Northeast 457 526 36,000 -950 Descending Washington Center
Sat 07:55:13 PM 38.3833 -75.3347 33° Northeast 457 526 35,100 -504 Descending Washington Center
Sat 07:56:13 PM 38.4958 -75.2575 28° Northeast 457 526 35,000 -50 Descending Washington Center
Sat 07:57:13 PM 38.6061 -75.1747 30° Northeast 457 526 35,000  Level Washington Center
Sat 07:58:15 PM 38.7203 -75.0914 30° Northeast 462 532 35,000  Level Washington Center
Sat 07:59:13 PM 38.8325 -75.0028 32° Northeast 462 532 35,000 -950 Level Washington Center
Sat 08:00:15 PM 38.9364 -74.9219 31° Northeast 462 532 33,100 -2,050 Descending Washington Center
Sat 08:01:13 PM 39.0422 -74.8433 30° Northeast 450 518 30,900 -2,200 Descending Washington Center
Sat 08:02:15 PM 39.1436 -74.7539 34° Northeast 450 518 28,700 -2,277 Descending Washington Center
Sat 08:03:30 PM 39.2628 -74.6214 41° Northeast 417 480 25,700 -2,294 Descending New York Center
Sat 08:04:31 PM 39.3469 -74.5267 41° Northeast 405 466 23,500 -2,164 Descending New York Center
Sat 08:05:32 PM 39.4289 -74.4422 39° Northeast 388 447 21,300 -2,218 Descending New York Center
Sat 08:06:30 PM 39.5067 -74.3550 41° Northeast 374 430 19,100 -1,692 Descending New York Center
Sat 08:07:29 PM 39.5758 -74.2803 40° Northeast 358 412 18,000 -655 Descending New York Center
Sat 08:08:29 PM 39.6489 -74.2003 40° Northeast 323 372 17,800 -843 Descending New York Center
Sat 08:09:30 PM 39.7156 -74.1281 40° Northeast 316 364 16,300 -1,438 Descending New York Center
Sat 08:10:30 PM 39.7883 -74.0667 33° Northeast 309 356 14,900 -1,438 Descending New York Center
Sat 08:11:31 PM 39.8503 -74.0100 35° Northeast 297 342 13,400 -950 Descending New York Center
Sat 08:12:30 PM 39.9250 -73.9486 32° Northeast 292 336 13,000 -200 Descending New York Center
Sat 08:13:31 PM 39.9892 -73.8892 35° Northeast 292 336 13,000  Level New York Center
Sat 08:14:31 PM 40.0547 -73.8489 25° Northeast 277 319 13,000  Level New York Center
Sat 08:15:29 PM 40.0717 -73.9228 287° West 182 209 13,000  Level New York Center
Sat 08:16:29 PM 40.0119 -73.9717 212° Southwest 168 193 13,000 -198 Level New York Center
Sat 08:17:30 PM 39.9397 -74.0169 206° Southwest 240 276 12,600 -496 Descending New York Center
Sat 08:18:30 PM 39.8675 -74.0678 208° Southwest 282 325 12,000 -595 Descending New York Center
Sat 08:19:31 PM 39.7953 -74.1156 207° Southwest 293 337 11,400 -496 Descending New York Center
Sat 08:20:31 PM 39.7506 -74.0758 146° Southeast 227 261 11,000 -200 Descending New York Center
Sat 08:21:31 PM 39.7714 -74.0011 70° East 156 180 11,000  Level New York Center
Sat 08:22:30 PM 39.8369 -73.9636 24° Northeast 172 198 11,000  Level New York Center
Sat 08:23:29 PM 39.8983 -73.9311 22° Northeast 214 246 11,000  Level New York Center
Sat 08:24:30 PM 39.9533 -73.9011 23° Northeast 239 275 11,000  Level New York Center
Sat 08:25:31 PM 40.0125 -73.8686 23° Northeast 239 275 11,000 -101 Level New York Center
Sat 08:26:29 PM 40.0783 -73.8256 27° Northeast 234 269 10,800 -736 Descending New York Center
Sat 08:27:17 PM 40.1333 -73.8167 North 235 270 9,700 -1,333 Descending New York TRACON
Sat 08:28:17 PM 40.1833 -73.8333 346° North 233 268 8,400 -1,300 Descending New York TRACON
Sat 08:29:17 PM 40.2500 -73.8667 339° North 233 268 7,100 -1,300 Descending New York TRACON
Sat 08:30:17 PM 40.3000 -73.9333 315° West 235 270 5,800 -1,200 Descending New York TRACON
Sat 08:31:17 PM 40.3500 -73.9500 346° North 211 243 4,700 -1,300 Descending New York TRACON
Sat 08:32:17 PM 40.4167 -73.9500 360° North 207 238 3,200 -850 Descending New York TRACON
Sat 08:33:17 PM 40.4667 -73.9667 346° North 211 243 3,000 -200 Descending New York TRACON
Sat 08:34:17 PM 40.5167 -73.9500 14° North 187 215 2,800 -600 Descending New York TRACON
Sat 08:35:17 PM 40.5667 -73.9333 14° North 173 199 1,800 -650 Descending New York TRACON
Sat 08:36:17 PM 40.6000 -73.9000 37° Northeast 168 193 1,500 -350 Descending New York TRACON
Sat 08:37:17 PM 40.6333 -73.8833 21° North 132 152 1,100 -350 Descending New York TRACON
Sat 08:38:17 PM 40.6667 -73.8500 37° Northeast 123 142 800 -400 Descending New York TRACON
Sat 08:39:17 PM 40.6667 -73.8000 90° East 121 139 300 -500 Descending New York TRACON

Login

Don't have an account? Register now (free) for customized features, flight alerts, and more!